createdAt,value
2018-04-19T00:00:08.854Z,1027.57
2018-04-19T00:01:08.876Z,1027.54
2018-04-19T00:02:08.896Z,1027.52
2018-04-19T00:04:08.943Z,1027.5
2018-04-19T00:05:08.965Z,1027.52
2018-04-19T00:06:08.987Z,1027.54
2018-04-19T00:07:09.009Z,1027.56
2018-04-19T00:08:09.036Z,1027.54
2018-04-19T00:09:09.053Z,1027.52
2018-04-19T00:10:09.077Z,1027.54
2018-04-19T00:11:09.098Z,1027.52
2018-04-19T00:12:09.121Z,1027.52
2018-04-19T00:13:09.143Z,1027.52
2018-04-19T00:14:09.165Z,1027.56
2018-04-19T00:15:09.187Z,1027.56
2018-04-19T00:16:09.210Z,1027.58
2018-04-19T00:17:09.233Z,1027.57
2018-04-19T00:19:09.277Z,1027.55
2018-04-19T00:20:09.299Z,1027.59
2018-04-19T00:21:09.321Z,1027.58
2018-04-19T00:22:09.345Z,1027.54
2018-04-19T00:23:09.371Z,1027.54
2018-04-19T00:24:09.386Z,1027.52
2018-04-19T00:25:09.409Z,1027.53
2018-04-19T00:26:09.432Z,1027.52
2018-04-19T00:27:09.455Z,1027.52
2018-04-19T00:28:09.478Z,1027.51
2018-04-19T00:29:09.497Z,1027.5
2018-04-19T00:30:09.520Z,1027.55
2018-04-19T00:31:09.544Z,1027.54
2018-04-19T00:32:09.564Z,1027.57
2018-04-19T00:33:09.587Z,1027.58
2018-04-19T00:34:09.609Z,1027.57
2018-04-19T00:35:09.630Z,1027.58
2018-04-19T00:36:09.652Z,1027.59
2018-04-19T00:37:09.675Z,1027.6
2018-04-19T00:38:09.703Z,1027.6
2018-04-19T00:39:09.720Z,1027.56
2018-04-19T00:40:09.741Z,1027.56
2018-04-19T00:41:09.764Z,1027.52
2018-04-19T00:42:09.785Z,1027.55
2018-04-19T00:43:09.808Z,1027.57
2018-04-19T00:44:09.831Z,1027.54
2018-04-19T00:45:09.852Z,1027.55
2018-04-19T00:46:09.873Z,1027.55
2018-04-19T00:47:09.895Z,1027.54
2018-04-19T00:48:09.919Z,1027.55
2018-04-19T00:49:09.939Z,1027.54
2018-04-19T00:51:09.988Z,1027.51
2018-04-19T00:52:10.010Z,1027.52
2018-04-19T00:53:10.027Z,1027.53
2018-04-19T00:54:10.050Z,1027.52
2018-04-19T00:55:10.071Z,1027.51
2018-04-19T00:56:10.098Z,1027.46
2018-04-19T00:57:10.115Z,1027.5
2018-04-19T00:58:10.145Z,1027.52
2018-04-19T00:59:10.162Z,1027.46
2018-04-19T01:00:10.181Z,1027.49
2018-04-19T01:01:10.203Z,1027.44
2018-04-19T01:02:10.226Z,1027.44
2018-04-19T01:03:10.248Z,1027.4
2018-04-19T01:04:10.269Z,1027.4
2018-04-19T01:05:10.292Z,1027.37
2018-04-19T01:07:10.339Z,1027.37
2018-04-19T01:08:10.357Z,1027.38
2018-04-19T01:09:10.378Z,1027.42
2018-04-19T01:10:10.401Z,1027.37
2018-04-19T01:11:10.422Z,1027.35
2018-04-19T01:12:10.445Z,1027.36
2018-04-19T01:13:10.468Z,1027.33
2018-04-19T01:14:10.490Z,1027.32
2018-04-19T01:15:10.511Z,1027.34
2018-04-19T01:16:10.532Z,1027.34
2018-04-19T01:17:10.555Z,1027.33
2018-04-19T01:18:10.578Z,1027.31
2018-04-19T01:19:10.598Z,1027.3
2018-04-19T01:20:10.621Z,1027.3
2018-04-19T01:21:10.644Z,1027.3
2018-04-19T01:23:10.687Z,1027.28
2018-04-19T01:24:10.709Z,1027.23
2018-04-19T01:25:10.730Z,1027.28
2018-04-19T01:26:10.752Z,1027.26
2018-04-19T01:27:10.775Z,1027.24
2018-04-19T01:28:10.804Z,1027.24
2018-04-19T01:29:10.820Z,1027.2
2018-04-19T01:30:10.840Z,1027.17
2018-04-19T01:31:10.862Z,1027.22
2018-04-19T01:32:10.884Z,1027.17
2018-04-19T01:33:10.905Z,1027.14
2018-04-19T01:34:10.931Z,1027.14
2018-04-19T01:35:10.949Z,1027.12
2018-04-19T01:36:10.971Z,1027.16
2018-04-19T01:37:10.993Z,1027.19
2018-04-19T01:39:11.037Z,1027.17
2018-04-19T01:40:11.064Z,1027.22
2018-04-19T01:41:11.079Z,1027.24
2018-04-19T01:42:11.102Z,1027.19
2018-04-19T01:43:11.123Z,1027.13
2018-04-19T01:44:11.145Z,1027.16
2018-04-19T01:45:11.167Z,1027.17
2018-04-19T01:46:11.189Z,1027.14
2018-04-19T01:47:11.211Z,1027.14
2018-04-19T01:48:11.232Z,1027.16
2018-04-19T01:49:11.254Z,1027.13
2018-04-19T01:50:11.276Z,1027.14
2018-04-19T01:51:11.313Z,1027.13
2018-04-19T01:52:11.322Z,1027.19
2018-04-19T01:54:11.365Z,1027.19
2018-04-19T01:55:11.386Z,1027.2
2018-04-19T01:56:11.407Z,1027.19
2018-04-19T01:57:11.431Z,1027.2
2018-04-19T01:58:11.451Z,1027.17
2018-04-19T01:59:11.472Z,1027.17
2018-04-19T02:00:11.494Z,1027.14
2018-04-19T02:01:11.516Z,1027.1
2018-04-19T02:02:11.537Z,1027.16
2018-04-19T02:03:11.559Z,1027.15
2018-04-19T02:04:11.582Z,1027.13
2018-04-19T02:05:11.603Z,1027.16
2018-04-19T02:06:11.624Z,1027.19
2018-04-19T02:07:11.712Z,1027.19
2018-04-19T02:08:11.669Z,1027.13
2018-04-19T02:09:11.690Z,1027.08
2018-04-19T02:10:11.714Z,1027.17
2018-04-19T02:11:11.732Z,1027.11
2018-04-19T02:12:11.755Z,1027.07
2018-04-19T02:13:11.775Z,1027.02
2018-04-19T02:14:11.797Z,1027.03
2018-04-19T02:15:11.820Z,1027.02
2018-04-19T02:16:11.841Z,1027
2018-04-19T02:17:11.862Z,1026.98
2018-04-19T02:18:11.885Z,1026.94
2018-04-19T02:19:11.976Z,1026.92
2018-04-19T02:20:11.928Z,1026.91
2018-04-19T02:21:11.950Z,1026.89
2018-04-19T02:22:11.971Z,1026.94
2018-04-19T02:23:11.993Z,1026.89
2018-04-19T02:24:12.012Z,1026.91
2018-04-19T02:26:12.056Z,1026.9
2018-04-19T02:27:12.078Z,1026.9
2018-04-19T02:28:12.100Z,1026.91
2018-04-19T02:29:12.121Z,1026.94
2018-04-19T02:30:12.144Z,1026.92
2018-04-19T02:31:12.165Z,1026.91
2018-04-19T02:32:12.191Z,1026.9
2018-04-19T02:33:12.208Z,1026.9
2018-04-19T02:34:12.238Z,1026.95
2018-04-19T02:35:12.250Z,1026.93
2018-04-19T02:36:12.272Z,1026.95
2018-04-19T02:37:12.293Z,1026.9
2018-04-19T02:38:12.316Z,1026.88
2018-04-19T02:39:12.336Z,1026.91
2018-04-19T02:40:12.358Z,1026.93
2018-04-19T02:42:12.401Z,1026.96
2018-04-19T02:43:12.422Z,1026.92
2018-04-19T02:44:12.444Z,1026.92
2018-04-19T02:45:12.466Z,1026.89
2018-04-19T02:46:12.486Z,1026.88
2018-04-19T02:47:12.509Z,1026.83
2018-04-19T02:48:12.529Z,1026.83
2018-04-19T02:49:12.551Z,1026.85
2018-04-19T02:50:12.571Z,1026.9
2018-04-19T02:51:12.594Z,1026.9
2018-04-19T02:52:12.615Z,1026.89
2018-04-19T02:53:12.637Z,1026.9
2018-04-19T02:54:12.657Z,1026.83
2018-04-19T02:55:12.679Z,1026.85
2018-04-19T02:56:12.701Z,1026.85
2018-04-19T02:58:12.742Z,1026.9
2018-04-19T02:59:12.766Z,1026.91
2018-04-19T03:00:12.786Z,1026.9
2018-04-19T03:01:12.806Z,1026.92
2018-04-19T03:02:12.829Z,1026.88
2018-04-19T03:03:12.849Z,1026.91
2018-04-19T03:04:12.870Z,1026.96
2018-04-19T03:05:12.891Z,1026.99
2018-04-19T03:06:12.915Z,1026.95
2018-04-19T03:07:12.933Z,1026.99
2018-04-19T03:08:12.954Z,1026.98
2018-04-19T03:09:12.976Z,1026.97
2018-04-19T03:10:12.997Z,1026.99
2018-04-19T03:11:13.019Z,1026.97
2018-04-19T03:12:13.039Z,1026.93
2018-04-19T03:14:13.082Z,1026.98
2018-04-19T03:15:13.103Z,1026.96
2018-04-19T03:16:13.123Z,1026.98
2018-04-19T03:17:13.149Z,1026.96
2018-04-19T03:18:13.165Z,1027.02
2018-04-19T03:19:13.187Z,1027
2018-04-19T03:20:13.208Z,1027.02
2018-04-19T03:21:13.230Z,1027
2018-04-19T03:22:13.251Z,1027
2018-04-19T03:23:13.271Z,1026.95
2018-04-19T03:24:13.293Z,1026.9
2018-04-19T03:25:13.315Z,1026.89
2018-04-19T03:26:13.336Z,1026.91
2018-04-19T03:27:13.357Z,1026.89
2018-04-19T03:29:13.399Z,1026.88
2018-04-19T03:30:13.444Z,1026.91
2018-04-19T03:31:13.443Z,1026.88
2018-04-19T03:32:13.463Z,1026.86
2018-04-19T03:33:13.490Z,1026.88
2018-04-19T03:34:13.505Z,1026.91
2018-04-19T03:35:13.525Z,1026.83
2018-04-19T03:36:13.547Z,1026.85
2018-04-19T03:37:13.568Z,1026.86
2018-04-19T03:38:13.589Z,1026.85
2018-04-19T03:39:13.611Z,1026.86
2018-04-19T03:40:13.631Z,1026.89
2018-04-19T03:41:13.652Z,1026.86
2018-04-19T03:42:13.677Z,1026.83
2018-04-19T03:43:13.695Z,1026.85
2018-04-19T03:44:13.716Z,1026.86
2018-04-19T03:45:13.738Z,1026.88
2018-04-19T03:46:13.757Z,1026.85
2018-04-19T03:47:13.778Z,1026.88
2018-04-19T03:48:13.799Z,1026.89
2018-04-19T03:49:13.819Z,1026.87
2018-04-19T03:50:13.841Z,1026.93
2018-04-19T03:51:13.862Z,1026.93
2018-04-19T03:52:13.883Z,1026.94
2018-04-19T03:53:13.905Z,1026.93
2018-04-19T03:54:13.924Z,1026.91
2018-04-19T03:55:13.946Z,1026.92
2018-04-19T03:56:13.966Z,1026.92
2018-04-19T03:57:13.988Z,1026.92
2018-04-19T03:58:14.009Z,1026.93
2018-04-19T03:59:14.079Z,1026.91
2018-04-19T04:01:14.100Z,1026.94
2018-04-19T04:02:14.093Z,1026.91
2018-04-19T04:03:14.113Z,1026.87
2018-04-19T04:04:14.134Z,1026.86
2018-04-19T04:05:14.159Z,1026.88
2018-04-19T04:06:14.177Z,1026.85
2018-04-19T04:07:14.197Z,1026.85
2018-04-19T04:08:14.218Z,1026.79
2018-04-19T04:09:14.240Z,1026.85
2018-04-19T04:10:14.259Z,1026.83
2018-04-19T04:11:14.281Z,1026.83
2018-04-19T04:12:14.301Z,1026.86
2018-04-19T04:13:14.323Z,1026.85
2018-04-19T04:14:14.344Z,1026.84
2018-04-19T04:15:14.373Z,1026.83
2018-04-19T04:17:14.407Z,1026.87
2018-04-19T04:18:14.427Z,1026.9
2018-04-19T04:19:14.450Z,1026.91
2018-04-19T04:20:14.469Z,1026.92
2018-04-19T04:21:14.490Z,1026.94
2018-04-19T04:22:14.512Z,1026.95
2018-04-19T04:23:14.533Z,1026.94
2018-04-19T04:24:14.554Z,1026.96
2018-04-19T04:25:14.573Z,1026.94
2018-04-19T04:26:14.595Z,1026.96
2018-04-19T04:27:14.616Z,1027.02
2018-04-19T04:28:14.638Z,1027
2018-04-19T04:29:14.657Z,1027
2018-04-19T04:30:14.680Z,1027.01
2018-04-19T04:31:14.754Z,1027.01
2018-04-19T04:33:14.742Z,1027.06
2018-04-19T04:34:14.763Z,1027.07
2018-04-19T04:35:14.788Z,1027.08
2018-04-19T04:36:14.805Z,1027.1
2018-04-19T04:37:14.826Z,1027.1
2018-04-19T04:38:14.848Z,1027.14
2018-04-19T04:39:14.868Z,1027.13
2018-04-19T04:40:14.890Z,1027.17
2018-04-19T04:41:14.911Z,1027.18
2018-04-19T04:42:14.934Z,1027.19
2018-04-19T04:43:14.953Z,1027.19
2018-04-19T04:44:14.974Z,1027.21
2018-04-19T04:45:14.995Z,1027.2
2018-04-19T04:46:15.025Z,1027.24
2018-04-19T04:47:15.038Z,1027.33
2018-04-19T04:49:15.082Z,1027.38
2018-04-19T04:50:15.103Z,1027.36
2018-04-19T04:51:15.124Z,1027.36
2018-04-19T04:52:15.153Z,1027.38
2018-04-19T04:53:15.169Z,1027.4
2018-04-19T04:54:15.190Z,1027.45
2018-04-19T04:55:15.214Z,1027.45
2018-04-19T04:56:15.236Z,1027.51
2018-04-19T04:57:15.259Z,1027.49
2018-04-19T04:58:15.282Z,1027.5
2018-04-19T04:59:15.305Z,1027.51
2018-04-19T05:00:15.329Z,1027.56
2018-04-19T05:01:15.359Z,1027.54
2018-04-19T05:02:15.376Z,1027.54
2018-04-19T05:04:15.424Z,1027.59
2018-04-19T05:05:15.448Z,1027.57
2018-04-19T05:06:15.472Z,1027.6
2018-04-19T05:07:15.497Z,1027.59
2018-04-19T05:08:15.522Z,1027.59
2018-04-19T05:09:15.546Z,1027.66
2018-04-19T05:10:15.571Z,1027.65
2018-04-19T05:11:15.595Z,1027.71
2018-04-19T05:12:15.620Z,1027.75
2018-04-19T05:13:15.645Z,1027.68
2018-04-19T05:14:15.671Z,1027.72
2018-04-19T05:15:15.696Z,1027.77
2018-04-19T05:16:15.720Z,1027.84
2018-04-19T05:17:15.746Z,1027.8
2018-04-19T05:18:15.770Z,1027.78
2018-04-19T05:19:15.797Z,1027.79
2018-04-19T05:20:15.830Z,1027.72
2018-04-19T05:21:15.855Z,1027.8
2018-04-19T05:22:15.874Z,1027.83
2018-04-19T05:23:15.898Z,1027.82
2018-04-19T05:24:15.925Z,1027.8
2018-04-19T05:25:15.951Z,1027.82
2018-04-19T05:26:16.029Z,1027.79
2018-04-19T05:27:16.003Z,1027.88
2018-04-19T05:28:16.033Z,1027.91
2018-04-19T05:29:16.059Z,1027.94
2018-04-19T05:30:16.082Z,1027.97
2018-04-19T05:31:16.107Z,1027.96
2018-04-19T05:32:16.133Z,1027.96
2018-04-19T05:33:16.161Z,1027.93
2018-04-19T05:34:16.187Z,1028
2018-04-19T05:36:16.241Z,1028.02
2018-04-19T05:37:16.272Z,1027.98
2018-04-19T05:38:16.296Z,1027.92
2018-04-19T05:39:16.326Z,1028.01
2018-04-19T05:40:16.355Z,1028.01
2018-04-19T05:41:16.384Z,1028.1
2018-04-19T05:42:16.407Z,1028.1
2018-04-19T05:43:16.436Z,1028.14
2018-04-19T05:44:16.464Z,1028.12
2018-04-19T05:45:16.495Z,1028.12
2018-04-19T05:46:16.521Z,1028.18
2018-04-19T05:47:16.549Z,1028.16
2018-04-19T05:48:16.579Z,1028.14
2018-04-19T05:49:16.607Z,1028.16
2018-04-19T05:50:16.636Z,1028.19
2018-04-19T05:52:16.695Z,1028.29
2018-04-19T05:53:16.724Z,1028.28
2018-04-19T05:54:16.754Z,1028.31
2018-04-19T05:55:16.784Z,1028.32
2018-04-19T05:56:16.814Z,1028.37
2018-04-19T05:57:16.844Z,1028.38
2018-04-19T05:58:16.874Z,1028.38
2018-04-19T05:59:16.904Z,1028.49
2018-04-19T06:00:16.934Z,1028.53
2018-04-19T06:01:16.965Z,1028.6
2018-04-19T06:02:16.996Z,1028.63
2018-04-19T06:03:17.029Z,1028.67
2018-04-19T06:04:17.057Z,1028.67
2018-04-19T06:05:17.089Z,1028.72
2018-04-19T06:06:17.124Z,1028.74
2018-04-19T06:08:17.182Z,1028.84
2018-04-19T06:09:17.214Z,1028.86
2018-04-19T06:10:17.246Z,1028.91
2018-04-19T06:11:17.277Z,1028.92
2018-04-19T06:12:17.309Z,1029.01
2018-04-19T06:13:17.347Z,1029.01
2018-04-19T06:14:17.378Z,1029.03
2018-04-19T06:15:17.441Z,1029.07
2018-04-19T06:16:17.439Z,1029.04
2018-04-19T06:17:17.472Z,1029.07
2018-04-19T06:18:17.503Z,1029.13
2018-04-19T06:19:17.536Z,1029.05
2018-04-19T06:20:17.569Z,1029.11
2018-04-19T06:21:17.602Z,1029.05
2018-04-19T06:22:17.635Z,1029.07
2018-04-19T06:24:17.701Z,1029.11
2018-04-19T06:25:17.734Z,1029.09
2018-04-19T06:26:17.767Z,1029.03
2018-04-19T06:27:17.801Z,1029.05
2018-04-19T06:28:17.834Z,1029.1
2018-04-19T06:29:17.870Z,1029.1
2018-04-19T06:30:17.914Z,1029.11
2018-04-19T06:31:17.935Z,1029.11
2018-04-19T06:32:17.969Z,1029.1
2018-04-19T06:33:18.001Z,1029.05
2018-04-19T06:34:18.034Z,1029.14
2018-04-19T06:35:18.069Z,1029.12
2018-04-19T06:36:18.105Z,1029.1
2018-04-19T06:37:18.137Z,1029.12
2018-04-19T06:39:18.210Z,1029.04
2018-04-19T06:40:18.240Z,1029.14
2018-04-19T06:41:18.274Z,1029.15
2018-04-19T06:42:18.310Z,1029.17
2018-04-19T06:43:18.343Z,1029.2
2018-04-19T06:44:18.376Z,1029.16
2018-04-19T06:45:18.411Z,1029.14
2018-04-19T06:46:18.445Z,1029.13
2018-04-19T06:47:18.480Z,1029.18
2018-04-19T06:48:18.513Z,1029.24
2018-04-19T06:49:18.552Z,1029.14
2018-04-19T06:50:18.585Z,1029.17
2018-04-19T06:51:18.671Z,1029.18
2018-04-19T06:52:18.653Z,1029.12
2018-04-19T06:53:18.689Z,1029.1
2018-04-19T06:54:18.723Z,1029.14
2018-04-19T06:55:18.758Z,1029.13
2018-04-19T06:56:18.793Z,1029.12
2018-04-19T06:57:18.828Z,1029.16
2018-04-19T06:58:18.890Z,1029.06
2018-04-19T06:59:18.898Z,1029.05
2018-04-19T07:00:18.934Z,1029.04
2018-04-19T07:01:18.968Z,1029
2018-04-19T07:02:19.003Z,1029.02
2018-04-19T07:03:19.042Z,1029.02
2018-04-19T07:04:19.075Z,1029.02
2018-04-19T07:05:19.110Z,1029.01
2018-04-19T07:06:19.147Z,1028.96
2018-04-19T07:07:19.181Z,1028.97
2018-04-19T07:08:19.216Z,1028.94
2018-04-19T07:09:19.253Z,1028.89
2018-04-19T07:11:19.322Z,1028.84
2018-04-19T07:12:19.358Z,1028.82
2018-04-19T07:13:19.394Z,1028.77
2018-04-19T07:14:19.429Z,1028.76
2018-04-19T07:15:19.465Z,1028.78
2018-04-19T07:16:19.501Z,1028.77
2018-04-19T07:17:19.536Z,1028.81
2018-04-19T07:18:19.575Z,1028.75
2018-04-19T07:19:19.607Z,1028.77
2018-04-19T07:20:19.642Z,1028.73
2018-04-19T07:21:19.681Z,1028.74
2018-04-19T07:22:19.715Z,1028.66
2018-04-19T07:23:19.751Z,1028.64
2018-04-19T07:24:19.786Z,1028.64
2018-04-19T07:25:19.822Z,1028.65
2018-04-19T07:27:19.899Z,1028.65
2018-04-19T07:28:19.929Z,1028.58
2018-04-19T07:29:19.972Z,1028.48
2018-04-19T07:30:20.002Z,1028.44
2018-04-19T07:31:20.036Z,1028.38
2018-04-19T07:32:20.123Z,1028.39
2018-04-19T07:33:20.109Z,1028.4
2018-04-19T07:34:20.143Z,1028.4
2018-04-19T07:35:20.179Z,1028.37
2018-04-19T07:36:20.249Z,1028.39
2018-04-19T07:37:20.251Z,1028.38
2018-04-19T07:38:20.287Z,1028.38
2018-04-19T07:39:20.321Z,1028.38
2018-04-19T07:40:20.358Z,1028.4
2018-04-19T07:41:20.394Z,1028.39
2018-04-19T07:43:20.464Z,1028.38
2018-04-19T07:44:20.501Z,1028.4
2018-04-19T07:45:20.537Z,1028.4
2018-04-19T07:46:20.572Z,1028.39
2018-04-19T07:47:20.608Z,1028.39
2018-04-19T07:48:20.647Z,1028.38
2018-04-19T07:49:20.679Z,1028.36
2018-04-19T07:50:20.714Z,1028.34
2018-04-19T07:51:20.751Z,1028.33
2018-04-19T07:52:20.787Z,1028.4
2018-04-19T07:53:20.821Z,1028.43
2018-04-19T07:54:20.857Z,1028.47
2018-04-19T07:55:20.897Z,1028.47
2018-04-19T07:56:20.929Z,1028.39
2018-04-19T07:57:20.966Z,1028.43
2018-04-19T07:59:21.035Z,1028.44
2018-04-19T08:00:21.071Z,1028.4
2018-04-19T08:01:21.106Z,1028.37
2018-04-19T08:02:21.142Z,1028.34
2018-04-19T08:03:21.177Z,1028.32
2018-04-19T08:04:21.212Z,1028.33
2018-04-19T08:05:21.292Z,1028.3
2018-04-19T08:06:21.283Z,1028.25
2018-04-19T08:07:21.318Z,1028.25
2018-04-19T08:08:21.354Z,1028.28
2018-04-19T08:09:21.389Z,1028.28
2018-04-19T08:10:21.425Z,1028.31
2018-04-19T08:11:21.542Z,1028.35
2018-04-19T08:12:21.496Z,1028.36
2018-04-19T08:14:21.568Z,1028.35
2018-04-19T08:15:21.602Z,1028.4
2018-04-19T08:16:21.637Z,1028.44
2018-04-19T08:17:21.673Z,1028.44
2018-04-19T08:18:21.714Z,1028.43
2018-04-19T08:19:21.743Z,1028.44
2018-04-19T08:20:21.781Z,1028.43
2018-04-19T08:21:21.814Z,1028.38
2018-04-19T08:22:21.848Z,1028.4
2018-04-19T08:23:21.883Z,1028.4
2018-04-19T08:24:21.919Z,1028.47
2018-04-19T08:25:21.956Z,1028.44
2018-04-19T08:26:21.988Z,1028.44
2018-04-19T08:27:22.023Z,1028.48
2018-04-19T08:28:22.058Z,1028.42
2018-04-19T08:29:22.094Z,1028.44
2018-04-19T08:30:22.129Z,1028.41
2018-04-19T08:31:22.169Z,1028.4
2018-04-19T08:32:22.199Z,1028.42
2018-04-19T08:33:22.233Z,1028.41
2018-04-19T08:34:22.269Z,1028.45
2018-04-19T08:35:22.314Z,1028.41
2018-04-19T08:36:22.339Z,1028.42
2018-04-19T08:37:22.373Z,1028.38
2018-04-19T08:38:22.407Z,1028.36
2018-04-19T08:39:22.443Z,1028.27
2018-04-19T08:40:22.479Z,1028.2
2018-04-19T08:41:22.511Z,1028.21
2018-04-19T08:42:22.554Z,1028.2
2018-04-19T08:43:22.582Z,1028.18
2018-04-19T08:44:22.617Z,1028.17
2018-04-19T08:46:22.687Z,1028.12
2018-04-19T08:47:22.721Z,1028.1
2018-04-19T08:48:22.756Z,1028.1
2018-04-19T08:49:22.790Z,1028.11
2018-04-19T08:50:22.833Z,1028.06
2018-04-19T08:51:22.860Z,1028.11
2018-04-19T08:52:22.901Z,1028.06
2018-04-19T08:53:22.929Z,1028.03
2018-04-19T08:54:22.964Z,1028.07
2018-04-19T08:55:22.997Z,1028.03
2018-04-19T08:56:23.083Z,1028.06
2018-04-19T08:57:23.071Z,1028.04
2018-04-19T08:58:23.102Z,1028.05
2018-04-19T08:59:23.135Z,1028
2018-04-19T09:00:23.169Z,1027.99
2018-04-19T09:02:23.239Z,1027.99
2018-04-19T09:03:23.273Z,1027.98
2018-04-19T09:04:23.314Z,1027.96
2018-04-19T09:05:23.342Z,1027.97
2018-04-19T09:06:23.376Z,1027.98
2018-04-19T09:07:23.411Z,1027.99
2018-04-19T09:08:23.444Z,1027.98
2018-04-19T09:09:23.482Z,1027.94
2018-04-19T09:10:23.514Z,1027.97
2018-04-19T09:11:23.549Z,1027.97
2018-04-19T09:12:23.582Z,1027.97
2018-04-19T09:13:23.616Z,1027.98
2018-04-19T09:14:23.649Z,1028.01
2018-04-19T09:15:23.684Z,1027.96
2018-04-19T09:16:23.718Z,1028
2018-04-19T09:18:23.789Z,1027.97
2018-04-19T09:19:23.821Z,1028
2018-04-19T09:20:23.854Z,1027.97
2018-04-19T09:21:23.891Z,1027.97
2018-04-19T09:22:23.922Z,1027.95
2018-04-19T09:23:23.957Z,1027.96
2018-04-19T09:24:23.991Z,1027.99
2018-04-19T09:25:24.025Z,1028.02
2018-04-19T09:26:24.058Z,1027.99
2018-04-19T09:27:24.093Z,1027.98
2018-04-19T09:28:24.125Z,1028.01
2018-04-19T09:29:24.160Z,1027.97
2018-04-19T09:30:24.195Z,1027.98
2018-04-19T09:31:24.231Z,1027.95
2018-04-19T09:32:24.266Z,1027.96
2018-04-19T09:34:24.330Z,1027.96
2018-04-19T09:35:24.363Z,1027.97
2018-04-19T09:36:24.399Z,1027.95
2018-04-19T09:37:24.435Z,1027.93
2018-04-19T09:38:24.466Z,1027.96
2018-04-19T09:39:24.499Z,1027.94
2018-04-19T09:40:24.533Z,1027.94
2018-04-19T09:41:24.567Z,1027.94
2018-04-19T09:42:24.601Z,1027.95
2018-04-19T09:43:24.634Z,1027.96
2018-04-19T09:44:24.668Z,1027.94
2018-04-19T09:45:24.702Z,1027.93
2018-04-19T09:46:24.736Z,1027.93
2018-04-19T09:47:24.770Z,1027.9
2018-04-19T09:49:24.840Z,1027.86
2018-04-19T09:50:24.869Z,1027.89
2018-04-19T09:51:24.904Z,1027.9
2018-04-19T09:52:24.942Z,1027.82
2018-04-19T09:53:24.971Z,1027.88
2018-04-19T09:54:25.003Z,1027.83
2018-04-19T09:55:25.037Z,1027.83
2018-04-19T09:56:25.070Z,1027.88
2018-04-19T09:57:25.103Z,1027.91
2018-04-19T09:58:25.137Z,1027.91
2018-04-19T09:59:25.170Z,1027.89
2018-04-19T10:00:25.204Z,1027.87
2018-04-19T10:01:25.235Z,1027.84
2018-04-19T10:02:25.274Z,1027.85
2018-04-19T10:03:25.302Z,1027.85
2018-04-19T10:04:25.341Z,1027.82
2018-04-19T10:05:25.367Z,1027.8
2018-04-19T10:06:25.401Z,1027.78
2018-04-19T10:07:25.433Z,1027.77
2018-04-19T10:08:25.465Z,1027.78
2018-04-19T10:09:25.498Z,1027.74
2018-04-19T10:10:25.594Z,1027.74
2018-04-19T10:11:25.563Z,1027.71
2018-04-19T10:12:25.595Z,1027.73
2018-04-19T10:13:25.629Z,1027.72
2018-04-19T10:14:25.662Z,1027.74
2018-04-19T10:15:25.695Z,1027.78
2018-04-19T10:16:25.727Z,1027.76
2018-04-19T10:17:25.760Z,1027.74
2018-04-19T10:18:25.793Z,1027.73
2018-04-19T10:19:25.824Z,1027.77
2018-04-19T10:21:25.974Z,1027.75
2018-04-19T10:22:25.923Z,1027.74
2018-04-19T10:23:25.955Z,1027.72
2018-04-19T10:24:25.986Z,1027.73
2018-04-19T10:25:26.019Z,1027.73
2018-04-19T10:26:26.052Z,1027.69
2018-04-19T10:27:26.193Z,1027.66
2018-04-19T10:28:26.115Z,1027.62
2018-04-19T10:29:26.148Z,1027.65
2018-04-19T10:30:26.178Z,1027.66
2018-04-19T10:31:26.212Z,1027.63
2018-04-19T10:32:26.243Z,1027.63
2018-04-19T10:33:26.275Z,1027.62
2018-04-19T10:34:26.306Z,1027.61
2018-04-19T10:35:26.339Z,1027.63
2018-04-19T10:37:26.401Z,1027.61
2018-04-19T10:38:26.432Z,1027.58
2018-04-19T10:39:26.462Z,1027.61
2018-04-19T10:40:26.495Z,1027.54
2018-04-19T10:41:26.525Z,1027.52
2018-04-19T10:42:26.556Z,1027.54
2018-04-19T10:43:26.592Z,1027.55
2018-04-19T10:44:26.622Z,1027.52
2018-04-19T10:45:26.649Z,1027.51
2018-04-19T10:46:26.681Z,1027.52
2018-04-19T10:47:26.717Z,1027.53
2018-04-19T10:48:26.742Z,1027.48
2018-04-19T10:49:26.772Z,1027.48
2018-04-19T10:50:26.803Z,1027.46
2018-04-19T10:51:26.834Z,1027.44
2018-04-19T10:53:26.894Z,1027.42
2018-04-19T10:54:26.924Z,1027.47
2018-04-19T10:55:26.958Z,1027.44
2018-04-19T10:56:26.985Z,1027.42
2018-04-19T10:57:27.018Z,1027.44
2018-04-19T10:58:27.045Z,1027.5
2018-04-19T10:59:27.076Z,1027.43
2018-04-19T11:00:27.105Z,1027.42
2018-04-19T11:01:27.135Z,1027.38
2018-04-19T11:02:27.165Z,1027.39
2018-04-19T11:03:27.193Z,1027.35
2018-04-19T11:04:27.227Z,1027.32
2018-04-19T11:05:27.253Z,1027.35
2018-04-19T11:06:27.288Z,1027.29
2018-04-19T11:07:27.311Z,1027.34
2018-04-19T11:09:27.370Z,1027.26
2018-04-19T11:10:27.401Z,1027.26
2018-04-19T11:11:27.428Z,1027.23
2018-04-19T11:12:27.458Z,1027.22
2018-04-19T11:13:27.487Z,1027.23
2018-04-19T11:14:27.516Z,1027.21
2018-04-19T11:15:27.545Z,1027.24
2018-04-19T11:16:27.574Z,1027.23
2018-04-19T11:17:27.604Z,1027.19
2018-04-19T11:18:27.631Z,1027.17
2018-04-19T11:19:27.663Z,1027.15
2018-04-19T11:20:27.692Z,1027.14
2018-04-19T11:21:27.720Z,1027.16
2018-04-19T11:22:27.761Z,1027.16
2018-04-19T11:24:27.807Z,1027.12
2018-04-19T11:25:27.835Z,1027.11
2018-04-19T11:26:27.865Z,1027.12
2018-04-19T11:27:27.895Z,1027.12
2018-04-19T11:28:27.922Z,1027.11
2018-04-19T11:29:27.951Z,1027.07
2018-04-19T11:30:27.980Z,1027.03
2018-04-19T11:31:28.008Z,1027.05
2018-04-19T11:32:28.036Z,1027
2018-04-19T11:33:28.066Z,1027.03
2018-04-19T11:34:28.095Z,1027
2018-04-19T11:35:28.123Z,1026.95
2018-04-19T11:36:28.152Z,1026.97
2018-04-19T11:37:28.180Z,1026.99
2018-04-19T11:38:28.210Z,1026.99
2018-04-19T11:39:28.238Z,1026.98
2018-04-19T11:40:28.266Z,1026.96
2018-04-19T11:41:28.296Z,1026.94
2018-04-19T11:42:28.362Z,1026.96
2018-04-19T11:43:28.352Z,1026.96
2018-04-19T11:44:28.381Z,1026.93
2018-04-19T11:45:28.409Z,1026.93
2018-04-19T11:46:28.438Z,1026.92
2018-04-19T11:47:28.466Z,1026.92
2018-04-19T11:48:28.495Z,1026.9
2018-04-19T11:49:28.523Z,1026.86
2018-04-19T11:50:28.552Z,1026.83
2018-04-19T11:51:28.579Z,1026.93
2018-04-19T11:52:28.608Z,1026.93
2018-04-19T11:53:28.637Z,1026.89
2018-04-19T11:54:28.664Z,1026.84
2018-04-19T11:56:28.721Z,1026.87
2018-04-19T11:57:28.750Z,1026.86
2018-04-19T11:58:28.778Z,1026.85
2018-04-19T11:59:28.807Z,1026.86
2018-04-19T12:00:28.834Z,1026.87
2018-04-19T12:01:28.870Z,1026.87
2018-04-19T12:02:28.891Z,1026.87
2018-04-19T12:03:28.921Z,1026.84
2018-04-19T12:04:28.950Z,1026.81
2018-04-19T12:05:28.977Z,1026.79
2018-04-19T12:06:29.004Z,1026.76
2018-04-19T12:07:29.032Z,1026.76
2018-04-19T12:08:29.061Z,1026.79
2018-04-19T12:09:29.088Z,1026.78
2018-04-19T12:10:29.116Z,1026.78
2018-04-19T12:12:29.173Z,1026.78
2018-04-19T12:13:29.218Z,1026.74
2018-04-19T12:14:29.228Z,1026.71
2018-04-19T12:15:29.256Z,1026.74
2018-04-19T12:16:29.286Z,1026.72
2018-04-19T12:17:29.320Z,1026.73
2018-04-19T12:18:29.341Z,1026.74
2018-04-19T12:19:29.369Z,1026.73
2018-04-19T12:20:29.395Z,1026.69
2018-04-19T12:21:29.424Z,1026.75
2018-04-19T12:22:29.452Z,1026.69
2018-04-19T12:23:29.480Z,1026.71
2018-04-19T12:24:29.531Z,1026.68
2018-04-19T12:25:29.536Z,1026.68
2018-04-19T12:26:29.563Z,1026.69
2018-04-19T12:28:29.619Z,1026.6
2018-04-19T12:29:29.647Z,1026.63
2018-04-19T12:30:29.678Z,1026.6
2018-04-19T12:31:29.703Z,1026.57
2018-04-19T12:32:29.731Z,1026.56
2018-04-19T12:33:29.767Z,1026.56
2018-04-19T12:34:29.787Z,1026.57
2018-04-19T12:35:29.813Z,1026.57
2018-04-19T12:36:29.842Z,1026.59
2018-04-19T12:37:29.904Z,1026.55
2018-04-19T12:38:29.897Z,1026.55
2018-04-19T12:39:29.926Z,1026.53
2018-04-19T12:40:29.955Z,1026.54
2018-04-19T12:41:29.982Z,1026.5
2018-04-19T12:42:30.010Z,1026.48
2018-04-19T12:44:30.065Z,1026.5
2018-04-19T12:45:30.093Z,1026.49
2018-04-19T12:46:30.120Z,1026.48
2018-04-19T12:47:30.149Z,1026.46
2018-04-19T12:48:30.181Z,1026.45
2018-04-19T12:49:30.203Z,1026.41
2018-04-19T12:50:30.232Z,1026.47